Time;durP1;ratioP1;P1;durP2;ratioP2;P2;SDS_P1;SDS_P2;PMS_P1;PMS_P2;Temp;Humidity;BMP_temperature;BMP_pressure;BME280_temperature;BME280_humidity;BME280_pressure;Samples;Min_cycle;Max_cycle;Signal;HPM_P1;HPM_P2
2022/02/22 00:02:03;;;;;;;24.43;22.93;;;18.50;60.50;;;;;;5034422;28;20858;-40
2022/02/22 00:04:33;;;;;;;23.93;22.53;;;18.40;60.30;;;;;;5034507;28;20453;-42
2022/02/22 00:07:00;;;;;;;23.73;22.40;;;18.40;60.40;;;;;;5034131;28;20449;-42
2022/02/22 00:09:27;;;;;;;23.07;21.87;;;18.40;60.60;;;;;;5034071;28;20485;-40
2022/02/22 00:11:53;;;;;;;22.50;21.30;;;18.30;60.80;;;;;;5034292;28;20467;-41
2022/02/22 00:14:20;;;;;;;23.33;22.13;;;18.30;60.90;;;;;;5034161;28;20784;-45
2022/02/22 00:16:48;;;;;;;22.40;21.30;;;18.30;61.00;;;;;;5034063;28;20449;-40
2022/02/22 00:19:15;;;;;;;22.97;21.87;;;18.20;61.00;;;;;;5034017;28;20468;-42
2022/02/22 00:21:42;;;;;;;22.40;21.40;;;18.20;61.80;;;;;;5033618;28;20469;-45
2022/02/22 00:24:09;;;;;;;22.23;21.03;;;18.20;61.40;;;;;;5034331;28;20454;-42
2022/02/22 00:26:35;;;;;;;23.57;21.97;;;18.10;61.20;;;;;;5034056;28;20445;-42
2022/02/22 00:29:02;;;;;;;23.70;22.50;;;18.00;61.20;;;;;;5033954;28;20857;-45
2022/02/22 00:31:29;;;;;;;22.67;21.57;;;17.90;61.20;;;;;;5033991;28;20497;-41
2022/02/22 00:33:57;;;;;;;23.47;22.17;;;17.90;61.00;;;;;;5034166;28;20945;-43
2022/02/22 00:36:24;;;;;;;22.97;21.50;;;17.90;61.30;;;;;;5033856;28;20449;-41
2022/02/22 00:38:50;;;;;;;22.40;21.30;;;17.80;61.40;;;;;;5033800;28;20433;-41
2022/02/22 00:41:17;;;;;;;22.90;21.70;;;17.80;61.30;;;;;;5033776;28;20461;-43
2022/02/22 00:43:44;;;;;;;22.93;21.80;;;17.80;61.40;;;;;;5033815;28;20930;-41
2022/02/22 00:46:11;;;;;;;22.40;21.00;;;17.70;61.50;;;;;;5033676;28;20441;-41
2022/02/22 00:48:38;;;;;;;22.00;20.90;;;17.70;61.50;;;;;;5033444;28;20866;-40
2022/02/22 00:51:06;;;;;;;22.30;21.20;;;17.70;61.90;;;;;;5056922;22;21008;-43
2022/02/22 00:53:32;;;;;;;22.30;21.20;;;17.60;62.20;;;;;;5033543;28;20798;-41
2022/02/22 00:55:59;;;;;;;23.27;22.03;;;17.60;62.60;;;;;;5033370;28;20453;-42
2022/02/22 00:58:26;;;;;;;22.20;21.10;;;17.50;62.20;;;;;;5033423;28;20524;-41
2022/02/22 01:00:53;;;;;;;22.57;21.17;;;17.50;62.70;;;;;;5033375;28;20830;-41
2022/02/22 01:03:19;;;;;;;22.30;21.10;;;17.50;63.20;;;;;;5033374;28;20448;-41
2022/02/22 01:05:46;;;;;;;23.43;22.20;;;17.40;63.30;;;;;;5033124;28;20456;-41
2022/02/22 01:08:15;;;;;;;23.17;21.53;;;17.30;63.70;;;;;;5033182;28;20491;-41
2022/02/22 01:10:42;;;;;;;22.97;21.63;;;17.30;64.20;;;;;;5032847;28;20475;-41
2022/02/22 01:13:09;;;;;;;22.10;21.00;;;17.20;64.40;;;;;;5033263;28;20829;-41
2022/02/22 01:15:36;;;;;;;22.97;21.67;;;17.20;64.80;;;;;;5033242;28;20802;-40
2022/02/22 01:18:03;;;;;;;23.70;22.27;;;17.10;65.20;;;;;;5032944;28;20446;-41
2022/02/22 01:20:30;;;;;;;22.30;21.10;;;17.10;65.60;;;;;;5033010;28;20452;-41
2022/02/22 01:22:57;;;;;;;23.07;21.47;;;17.10;66.30;;;;;;5032504;28;20446;-41
2022/02/22 01:25:26;;;;;;;22.30;21.20;;;17.20;66.00;;;;;;5032984;28;20480;-41
2022/02/22 01:27:53;;;;;;;22.87;21.37;;;17.20;66.50;;;;;;5032895;28;20817;-42
2022/02/22 01:30:20;;;;;;;22.70;21.20;;;17.20;66.60;;;;;;5032910;28;20818;-42
2022/02/22 01:32:47;;;;;;;23.57;22.23;;;17.20;66.70;;;;;;5032558;28;20458;-41
2022/02/22 01:35:14;;;;;;;21.70;20.67;;;17.20;66.40;;;;;;5032988;28;20445;-41
2022/02/22 01:37:40;;;;;;;23.47;21.83;;;17.20;66.90;;;;;;5032699;28;20442;-41
2022/02/22 01:40:09;;;;;;;22.90;21.33;;;17.10;67.10;;;;;;5032592;28;20814;-42
2022/02/22 01:42:37;;;;;;;22.20;20.90;;;17.10;67.30;;;;;;5032461;28;20477;-41
2022/02/22 01:45:06;;;;;;;22.00;21.00;;;17.00;67.90;;;;;;5032633;28;20818;-42
2022/02/22 01:47:33;;;;;;;22.03;20.97;;;17.00;68.10;;;;;;5032646;28;20793;-40
2022/02/22 01:50:00;;;;;;;22.40;21.30;;;17.00;68.10;;;;;;5032301;28;20481;-41
2022/02/22 01:52:27;;;;;;;23.13;21.83;;;17.00;68.70;;;;;;5032299;28;20488;-41
2022/02/22 01:54:55;;;;;;;22.70;21.60;;;17.00;68.30;;;;;;5032292;28;20457;-42
2022/02/22 01:57:23;;;;;;;22.97;21.60;;;17.00;68.60;;;;;;5032436;28;20855;-41
2022/02/22 01:59:53;;;;;;;24.17;22.77;;;17.00;68.40;;;;;;5032251;28;20456;-41
2022/02/22 02:02:20;;;;;;;22.70;21.53;;;16.90;68.60;;;;;;5032036;28;20470;-41
2022/02/22 02:04:46;;;;;;;23.47;22.33;;;16.90;68.80;;;;;;5032007;28;20822;-42
2022/02/22 02:07:13;;;;;;;22.33;21.23;;;16.80;69.00;;;;;;5032369;28;20748;-42
2022/02/22 02:09:40;;;;;;;22.20;21.10;;;16.80;69.20;;;;;;5031955;28;20481;-41
2022/02/22 02:12:07;;;;;;;22.00;21.00;;;16.80;69.80;;;;;;5031847;28;20832;-41
2022/02/22 02:14:34;;;;;;;22.07;21.00;;;16.70;70.10;;;;;;5032054;28;20453;-41
2022/02/22 02:17:02;;;;;;;22.10;21.10;;;16.70;70.00;;;;;;5032041;28;20462;-42
2022/02/22 02:19:29;;;;;;;22.50;21.40;;;16.70;70.30;;;;;;5031428;28;20811;-42
2022/02/22 02:22:00;;;;;;;22.60;21.17;;;16.70;70.90;;;;;;5031672;28;20465;-40
2022/02/22 02:24:29;;;;;;;23.20;22.00;;;16.60;70.60;;;;;;5031988;28;20468;-41
2022/02/22 02:26:56;;;;;;;23.20;21.83;;;16.60;70.70;;;;;;5032021;28;20445;-41
2022/02/22 02:29:25;;;;;;;22.60;21.40;;;16.60;71.40;;;;;;5031356;28;20473;-41
2022/02/22 02:31:53;;;;;;;23.20;22.17;;;16.60;71.50;;;;;;5031843;28;20473;-41
2022/02/22 02:34:22;;;;;;;22.23;21.03;;;16.60;71.30;;;;;;5032020;28;20449;-41
2022/02/22 02:36:49;;;;;;;21.97;21.00;;;16.50;71.80;;;;;;5031859;28;20452;-41
2022/02/22 02:39:17;;;;;;;21.93;20.93;;;16.50;72.00;;;;;;5031299;28;20442;-41
2022/02/22 02:41:47;;;;;;;21.77;20.77;;;16.50;71.90;;;;;;5031718;28;20465;-41
2022/02/22 02:44:15;;;;;;;22.73;21.53;;;16.50;72.20;;;;;;5031310;28;20452;-41
2022/02/22 02:46:43;;;;;;;22.00;20.80;;;16.50;72.10;;;;;;5031756;28;20449;-42
2022/02/22 02:49:12;;;;;;;22.87;21.57;;;16.40;72.50;;;;;;5031115;28;20484;-41
2022/02/22 02:51:39;;;;;;;22.07;20.83;;;16.40;73.20;;;;;;5031646;28;20997;-41
2022/02/22 02:54:07;;;;;;;22.73;21.50;;;16.30;73.50;;;;;;5031617;28;20446;-41
2022/02/22 02:56:35;;;;;;;22.57;21.43;;;16.30;73.80;;;;;;5031792;28;20802;-41
2022/02/22 02:59:04;;;;;;;23.43;22.13;;;16.30;74.50;;;;;;5031287;28;20430;-41
2022/02/22 03:01:33;;;;;;;22.23;21.13;;;16.30;74.60;;;;;;5031335;28;20470;-40
2022/02/22 03:04:00;;;;;;;22.90;21.50;;;16.30;74.80;;;;;;5031547;28;20449;-41
2022/02/22 03:06:27;;;;;;;22.20;21.20;;;16.20;75.40;;;;;;5031515;28;20464;-41
2022/02/22 03:08:54;;;;;;;22.67;21.50;;;16.30;75.60;;;;;;5031048;28;20483;-42
2022/02/22 03:11:21;;;;;;;22.30;21.00;;;16.30;76.00;;;;;;5031411;28;20468;-41
2022/02/22 03:13:50;;;;;;;23.20;21.37;;;16.30;75.80;;;;;;5031488;28;20446;-41
2022/02/22 03:16:16;;;;;;;22.83;21.37;;;16.40;75.40;;;;;;5031667;28;20449;-42
2022/02/22 03:18:45;;;;;;;22.77;21.67;;;16.30;75.30;;;;;;5030905;28;20445;-40
2022/02/22 03:21:12;;;;;;;22.70;21.40;;;16.20;76.50;;;;;;5031274;28;20505;-41
2022/02/22 03:23:39;;;;;;;22.57;21.40;;;16.20;76.50;;;;;;5031492;28;20465;-41
2022/02/22 03:26:06;;;;;;;22.07;20.97;;;16.30;76.70;;;;;;5031183;28;20468;-40
2022/02/22 03:28:33;;;;;;;21.50;20.60;;;16.20;76.20;;;;;;5030806;28;20450;-41
2022/02/22 03:31:03;;;;;;;22.50;21.40;;;16.20;76.90;;;;;;5031243;28;20768;-41
2022/02/22 03:33:30;;;;;;;22.27;21.17;;;16.10;77.40;;;;;;5031245;28;20457;-41
2022/02/22 03:35:57;;;;;;;22.23;21.23;;;16.20;78.10;;;;;;5031063;28;20946;-41
2022/02/22 03:38:23;;;;;;;22.70;21.60;;;16.20;77.90;;;;;;5031130;28;20461;-41
2022/02/22 03:40:50;;;;;;;22.57;21.27;;;16.20;77.70;;;;;;5030947;28;20475;-41
2022/02/22 03:43:17;;;;;;;22.10;20.90;;;16.30;77.80;;;;;;5031164;28;20449;-41
2022/02/22 03:45:44;;;;;;;21.50;20.50;;;16.30;77.80;;;;;;5031066;28;20445;-39
2022/02/22 03:48:12;;;;;;;22.13;21.03;;;16.20;78.10;;;;;;5030504;28;20452;-41
2022/02/22 03:50:38;;;;;;;21.43;20.40;;;16.20;77.90;;;;;;5030844;28;20496;-41
2022/02/22 03:53:05;;;;;;;21.80;20.80;;;16.20;78.10;;;;;;5031115;28;20823;-41
2022/02/22 03:55:32;;;;;;;21.80;20.70;;;16.20;77.90;;;;;;5031700;28;20831;-41
2022/02/22 03:57:59;;;;;;;22.20;20.80;;;16.10;78.60;;;;;;5034333;28;20954;-41
2022/02/22 04:00:27;;;;;;;21.60;20.70;;;16.10;79.10;;;;;;5034499;28;20441;-41
2022/02/22 04:02:54;;;;;;;23.10;21.60;;;16.20;79.20;;;;;;5034533;28;20930;-41
2022/02/22 04:05:23;;;;;;;22.23;21.23;;;16.10;79.80;;;;;;5034689;28;20873;-41
2022/02/22 04:07:50;;;;;;;22.17;21.10;;;16.10;79.70;;;;;;5034113;28;20453;-41
2022/02/22 04:10:18;;;;;;;21.80;20.90;;;16.20;80.10;;;;;;5034373;28;20481;-41
2022/02/22 04:12:45;;;;;;;21.77;20.77;;;16.20;80.10;;;;;;5034463;28;20445;-40
2022/02/22 04:15:12;;;;;;;22.77;21.00;;;16.10;80.20;;;;;;5034372;28;20441;-41
2022/02/22 04:17:39;;;;;;;22.53;20.87;;;16.00;81.30;;;;;;5034203;28;20457;-41
2022/02/22 04:20:07;;;;;;;21.70;20.80;;;16.00;81.60;;;;;;5034086;28;20438;-41
2022/02/22 04:22:35;;;;;;;22.80;21.70;;;16.00;81.80;;;;;;5034348;28;20465;-41
2022/02/22 04:25:02;;;;;;;22.10;21.00;;;16.00;82.00;;;;;;5034120;28;20455;-41
2022/02/22 04:27:29;;;;;;;22.00;21.00;;;16.10;81.70;;;;;;5033969;28;20467;-40
2022/02/22 04:29:56;;;;;;;22.67;21.57;;;16.10;82.00;;;;;;5033749;28;20484;-41
2022/02/22 04:32:22;;;;;;;22.53;21.10;;;16.00;81.80;;;;;;5033997;28;21160;-41
2022/02/22 04:34:50;;;;;;;21.30;20.30;;;16.00;82.60;;;;;;5033964;28;20452;-40
2022/02/22 04:37:17;;;;;;;21.83;20.60;;;16.10;82.20;;;;;;5033814;28;20477;-42
2022/02/22 04:39:45;;;;;;;22.20;21.17;;;16.10;82.50;;;;;;5033746;28;20449;-41
2022/02/22 04:42:12;;;;;;;21.83;20.67;;;16.10;82.60;;;;;;5033814;28;20461;-41
2022/02/22 04:44:40;;;;;;;22.77;20.97;;;16.10;82.90;;;;;;5033929;28;20445;-41
2022/02/22 04:47:07;;;;;;;21.97;20.87;;;16.10;82.60;;;;;;5033470;28;20461;-41
2022/02/22 04:49:34;;;;;;;21.60;20.50;;;16.10;83.20;;;;;;5033447;28;20998;-40
2022/02/22 04:52:00;;;;;;;21.67;20.57;;;16.00;83.10;;;;;;5033516;28;20473;-41
2022/02/22 04:54:27;;;;;;;22.20;21.10;;;16.10;83.50;;;;;;5033556;28;20449;-41
2022/02/22 04:56:55;;;;;;;22.57;21.30;;;16.00;83.60;;;;;;5033371;28;20452;-41
2022/02/22 04:59:24;;;;;;;22.50;21.13;;;16.00;83.80;;;;;;5033359;28;20464;-41
2022/02/22 05:01:51;;;;;;;21.40;20.50;;;16.10;83.60;;;;;;5033423;28;20531;-41
2022/02/22 05:04:17;;;;;;;22.27;21.10;;;16.10;83.70;;;;;;5033412;28;20449;-41
2022/02/22 05:06:44;;;;;;;22.33;21.13;;;16.10;84.20;;;;;;5032840;28;20464;-41
2022/02/22 05:09:11;;;;;;;22.30;21.10;;;16.10;84.00;;;;;;5032839;28;20446;-41
2022/02/22 05:11:38;;;;;;;22.10;21.10;;;16.20;83.40;;;;;;5033259;28;20466;-41
2022/02/22 05:14:06;;;;;;;22.60;21.30;;;16.10;83.80;;;;;;5033285;28;20820;-43
2022/02/22 05:16:35;;;;;;;22.40;21.30;;;16.10;84.90;;;;;;5032902;28;20441;-41
2022/02/22 05:19:03;;;;;;;22.90;21.50;;;16.10;84.50;;;;;;5032806;28;20453;-41
2022/02/22 05:21:29;;;;;;;22.70;21.40;;;16.00;84.90;;;;;;5033188;28;20477;-41
2022/02/22 05:23:57;;;;;;;21.80;20.70;;;16.10;85.40;;;;;;5033136;28;20448;-41
2022/02/22 05:26:25;;;;;;;22.20;20.87;;;16.10;84.80;;;;;;5032784;28;20446;-41
2022/02/22 05:28:51;;;;;;;22.10;20.90;;;16.10;84.50;;;;;;5032666;28;20445;-41
2022/02/22 05:31:20;;;;;;;21.90;20.80;;;16.10;85.30;;;;;;5032762;28;20481;-41
2022/02/22 05:33:47;;;;;;;22.60;21.40;;;16.10;85.10;;;;;;5032881;28;20452;-41
2022/02/22 05:36:14;;;;;;;21.60;20.50;;;16.10;85.30;;;;;;5032507;28;20464;-41
2022/02/22 05:38:41;;;;;;;23.90;22.70;;;16.10;85.20;;;;;;5032705;28;20444;-41
2022/02/22 05:41:07;;;;;;;22.50;21.30;;;16.10;85.20;;;;;;5032611;28;20458;-41
2022/02/22 05:43:34;;;;;;;22.10;21.00;;;16.00;85.70;;;;;;5032860;28;20450;-41
2022/02/22 05:46:01;;;;;;;21.90;20.80;;;16.00;86.60;;;;;;5032655;28;20816;-41
2022/02/22 05:48:29;;;;;;;21.57;20.50;;;16.00;86.50;;;;;;5032127;28;20449;-41
2022/02/22 05:50:56;;;;;;;22.13;20.93;;;16.20;88.40;;;;;;5032376;28;20485;-41
2022/02/22 05:53:22;;;;;;;22.43;21.33;;;16.60;86.90;;;;;;5032419;28;20446;-41
2022/02/22 05:55:49;;;;;;;22.17;21.07;;;17.00;83.20;;;;;;5032443;28;20536;-42
2022/02/22 05:58:16;;;;;;;21.93;20.83;;;17.40;80.80;;;;;;5032056;28;20461;-42
2022/02/22 06:00:43;;;;;;;22.53;21.33;;;17.70;78.60;;;;;;5032390;28;20465;-42
2022/02/22 06:03:09;;;;;;;23.27;21.97;;;18.10;76.90;;;;;;5032384;28;20453;-41
2022/02/22 06:05:38;;;;;;;23.70;22.30;;;18.60;76.90;;;;;;5032337;28;20452;-42
2022/02/22 06:08:05;;;;;;;25.30;23.63;;;18.80;78.40;;;;;;5031758;28;20450;-41
2022/02/22 06:10:32;;;;;;;27.30;25.07;;;19.00;79.10;;;;;;5031930;28;20481;-41
2022/02/22 06:12:58;;;;;;;24.43;22.70;;;19.20;82.10;;;;;;5032182;28;20931;-44
2022/02/22 06:15:25;;;;;;;24.73;22.80;;;19.40;85.20;;;;;;5032086;28;20477;-41
2022/02/22 06:17:52;;;;;;;30.07;27.90;;;19.50;87.40;;;;;;5030939;28;20452;-41
2022/02/22 06:20:19;;;;;;;32.43;30.03;;;19.60;87.60;;;;;;5029524;28;20453;-49
2022/02/22 06:22:47;;;;;;;31.40;29.07;;;19.60;86.40;;;;;;5031700;28;20449;-44
2022/02/22 06:25:14;;;;;;;30.40;28.77;;;19.70;85.10;;;;;;5032061;28;21094;-44
2022/02/22 06:27:49;;;;;;;31.63;29.50;;;19.70;82.50;;;;;;5032026;28;20449;-42
2022/02/22 06:30:15;;;;;;;29.70;27.40;;;19.70;80.30;;;;;;5031393;28;20473;-42
2022/02/22 06:32:42;;;;;;;28.63;26.63;;;19.70;78.70;;;;;;5031944;28;20633;-42
2022/02/22 06:35:09;;;;;;;28.57;26.40;;;19.70;76.80;;;;;;5031785;28;20441;-42
2022/02/22 06:37:36;;;;;;;29.27;26.93;;;19.80;75.80;;;;;;5032040;28;20601;-42
2022/02/22 06:40:07;;;;;;;30.20;28.33;;;19.80;74.50;;;;;;5031546;28;20528;-42
2022/02/22 06:42:34;;;;;;;30.57;28.37;;;19.80;73.30;;;;;;5031605;28;20894;-42
2022/02/22 06:45:01;;;;;;;30.23;28.50;;;19.80;72.40;;;;;;5031757;28;20877;-42
2022/02/22 06:47:27;;;;;;;30.20;28.30;;;19.80;71.30;;;;;;5031541;28;21016;-45
2022/02/22 06:49:54;;;;;;;28.97;27.20;;;19.80;70.70;;;;;;5031408;28;20473;-49
2022/02/22 06:52:21;;;;;;;28.77;26.93;;;19.80;70.10;;;;;;5031949;28;20480;-41
2022/02/22 06:54:48;;;;;;;26.93;25.50;;;19.80;69.40;;;;;;5031653;28;20445;-42
2022/02/22 06:57:17;;;;;;;34.13;32.00;;;19.80;68.80;;;;;;5031637;28;20452;-43
2022/02/22 06:59:45;;;;;;;31.77;29.87;;;19.70;68.00;;;;;;5031369;28;20468;-41
2022/02/22 07:02:11;;;;;;;34.00;31.80;;;19.70;67.40;;;;;;5031430;28;20469;-41
2022/02/22 07:04:38;;;;;;;33.97;32.00;;;19.70;66.60;;;;;;5031618;28;20449;-43
2022/02/22 07:07:06;;;;;;;32.23;30.53;;;19.70;66.60;;;;;;5031505;28;20445;-41
2022/02/22 07:09:34;;;;;;;29.00;27.33;;;19.60;65.90;;;;;;5031097;28;20970;-42
2022/02/22 07:12:01;;;;;;;32.63;30.83;;;19.60;65.60;;;;;;5031271;28;20899;-41
2022/02/22 07:14:28;;;;;;;33.37;31.67;;;19.60;65.30;;;;;;5031415;28;20453;-42
2022/02/22 07:16:56;;;;;;;31.07;29.30;;;19.60;65.50;;;;;;5031414;28;20456;-41
2022/02/22 07:19:24;;;;;;;31.83;29.70;;;19.60;64.40;;;;;;5031025;28;20448;-42
2022/02/22 07:21:50;;;;;;;30.93;29.33;;;19.60;63.90;;;;;;5031380;28;20807;-42
2022/02/22 07:24:17;;;;;;;31.43;29.73;;;19.50;63.50;;;;;;5031272;28;20950;-42
2022/02/22 07:26:44;;;;;;;31.90;30.10;;;19.50;63.30;;;;;;5031246;28;20456;-41
2022/02/22 07:29:11;;;;;;;33.13;31.13;;;19.50;62.80;;;;;;5031124;28;20458;-41
2022/02/22 07:31:37;;;;;;;30.40;28.80;;;19.50;62.70;;;;;;5035013;28;20484;-43
2022/02/22 07:34:05;;;;;;;30.03;28.53;;;19.40;62.40;;;;;;5035099;28;20449;-43
2022/02/22 07:36:32;;;;;;;32.00;30.10;;;19.40;62.20;;;;;;5034990;28;20450;-41
2022/02/22 07:38:59;;;;;;;30.53;29.10;;;19.40;62.10;;;;;;5034800;28;20449;-41
2022/02/22 07:41:26;;;;;;;25.83;24.40;;;19.40;61.80;;;;;;5034812;28;20979;-41
2022/02/22 07:43:53;;;;;;;28.23;26.77;;;19.40;61.40;;;;;;5034912;28;20957;-41
2022/02/22 07:46:20;;;;;;;26.60;25.13;;;19.30;61.90;;;;;;5034915;28;20453;-43
2022/02/22 07:48:47;;;;;;;30.47;28.77;;;19.30;61.10;;;;;;5034693;28;20459;-41
2022/02/22 07:51:16;;;;;;;29.63;28.00;;;19.30;60.70;;;;;;5034434;28;20496;-44
2022/02/22 07:53:43;;;;;;;30.67;28.90;;;19.30;60.50;;;;;;5034747;28;20536;-41
2022/02/22 07:56:10;;;;;;;30.93;29.43;;;19.30;60.50;;;;;;5034592;28;20840;-42
2022/02/22 07:58:38;;;;;;;33.83;32.00;;;19.30;60.20;;;;;;5034534;28;20441;-43
2022/02/22 08:01:05;;;;;;;30.80;28.93;;;19.20;59.90;;;;;;5034439;28;20473;-43
2022/02/22 08:03:31;;;;;;;26.83;25.33;;;19.30;59.90;;;;;;5034505;28;20931;-43
2022/02/22 08:05:58;;;;;;;25.77;24.43;;;19.20;59.70;;;;;;5034694;28;20452;-43
2022/02/22 08:08:26;;;;;;;27.23;25.60;;;19.20;59.60;;;;;;5034221;28;20461;-43
2022/02/22 08:10:53;;;;;;;28.20;26.70;;;19.20;59.50;;;;;;5034200;28;20480;-43
2022/02/22 08:13:20;;;;;;;27.17;25.70;;;19.20;59.40;;;;;;5034405;28;20449;-42
2022/02/22 08:15:47;;;;;;;30.47;28.97;;;19.20;59.20;;;;;;5034287;28;20445;-42
2022/02/22 08:18:14;;;;;;;28.33;26.83;;;19.20;59.00;;;;;;5034136;28;20449;-46
2022/02/22 08:20:41;;;;;;;28.27;26.67;;;19.20;58.80;;;;;;5034324;28;20465;-45
2022/02/22 08:23:08;;;;;;;28.00;26.40;;;19.20;58.70;;;;;;5034283;28;20546;-42
2022/02/22 08:25:36;;;;;;;28.30;26.80;;;19.20;58.40;;;;;;5034083;28;20441;-42
2022/02/22 08:28:08;;;;;;;27.80;26.33;;;19.20;58.10;;;;;;5033955;28;20446;-43
2022/02/22 08:30:36;;;;;;;29.90;28.37;;;19.20;58.00;;;;;;5033918;28;20543;-43
2022/02/22 08:33:03;;;;;;;28.87;27.07;;;19.20;58.10;;;;;;5034124;28;20454;-44
2022/02/22 08:35:30;;;;;;;29.03;27.50;;;19.10;57.90;;;;;;5033994;28;20445;-46
2022/02/22 08:37:57;;;;;;;27.53;26.03;;;19.10;57.90;;;;;;5033874;28;20453;-42
2022/02/22 08:40:23;;;;;;;30.70;29.10;;;19.10;58.20;;;;;;5033743;28;20453;-44
2022/02/22 08:42:52;;;;;;;28.73;27.23;;;19.20;58.00;;;;;;5033131;28;20449;-42
2022/02/22 08:45:19;;;;;;;28.67;27.13;;;19.30;57.70;;;;;;5033879;28;20449;-42
2022/02/22 08:47:46;;;;;;;32.53;30.93;;;19.40;57.50;;;;;;5033587;28;20445;-42
2022/02/22 08:50:12;;;;;;;28.03;26.53;;;19.40;57.10;;;;;;5033626;28;20809;-45
2022/02/22 08:52:39;;;;;;;28.13;26.83;;;19.50;56.90;;;;;;5033461;28;20477;-45
2022/02/22 08:55:06;;;;;;;29.70;28.20;;;19.60;57.20;;;;;;5033646;28;20461;-43
2022/02/22 08:57:33;;;;;;;32.20;30.70;;;19.60;56.50;;;;;;5033624;28;20450;-45
2022/02/22 09:00:01;;;;;;;29.57;27.97;;;19.60;56.30;;;;;;5033391;28;20836;-41
2022/02/22 09:02:28;;;;;;;26.80;25.60;;;19.50;56.00;;;;;;5033297;28;20473;-42
2022/02/22 09:04:55;;;;;;;29.00;27.50;;;19.50;56.10;;;;;;5033566;28;20445;-46
2022/02/22 09:07:22;;;;;;;30.03;28.53;;;19.50;56.00;;;;;;5033317;28;20449;-45
2022/02/22 09:09:48;;;;;;;27.60;26.20;;;19.50;55.80;;;;;;5033020;28;20442;-45
2022/02/22 09:12:15;;;;;;;29.20;27.80;;;19.50;55.70;;;;;;5033189;28;20897;-43
2022/02/22 09:14:42;;;;;;;28.00;26.70;;;19.50;55.70;;;;;;5033195;28;20450;-46
2022/02/22 09:17:10;;;;;;;29.00;27.53;;;19.50;55.60;;;;;;5033234;28;20452;-45
2022/02/22 09:19:36;;;;;;;27.00;25.50;;;19.50;55.50;;;;;;5033001;28;20949;-45
2022/02/22 09:22:04;;;;;;;29.03;27.23;;;19.50;55.30;;;;;;5033075;28;20469;-43
2022/02/22 09:24:30;;;;;;;27.50;26.10;;;19.50;55.30;;;;;;5033184;28;20449;-43
2022/02/22 09:26:57;;;;;;;27.43;26.03;;;19.50;55.20;;;;;;5033076;28;20449;-43
2022/02/22 09:29:24;;;;;;;28.03;26.63;;;19.50;55.10;;;;;;5032765;28;20449;-43
2022/02/22 09:31:51;;;;;;;29.10;27.47;;;19.50;55.00;;;;;;5033006;28;20485;-44
2022/02/22 09:34:19;;;;;;;27.87;26.47;;;19.50;54.90;;;;;;5033124;28;20445;-47
2022/02/22 09:36:46;;;;;;;30.43;28.93;;;19.50;54.70;;;;;;5032875;28;20822;-45
2022/02/22 09:39:12;;;;;;;28.33;26.60;;;19.50;54.60;;;;;;5032709;28;20449;-48
2022/02/22 09:41:39;;;;;;;26.90;25.60;;;19.50;54.50;;;;;;5032809;28;20477;-42
2022/02/22 09:44:06;;;;;;;26.87;25.50;;;19.50;54.50;;;;;;5032795;28;20448;-46
2022/02/22 09:46:35;;;;;;;26.03;24.83;;;19.50;54.40;;;;;;5032634;28;20449;-43
2022/02/22 09:49:01;;;;;;;25.90;24.67;;;19.50;54.40;;;;;;5032500;28;20456;-42
2022/02/22 09:51:30;;;;;;;27.40;25.93;;;19.50;54.30;;;;;;5032268;28;20493;-44
2022/02/22 09:53:56;;;;;;;29.93;28.40;;;19.60;54.20;;;;;;5031554;28;20453;-49
2022/02/22 09:56:24;;;;;;;27.90;26.60;;;19.60;54.00;;;;;;5032496;28;20448;-43
2022/02/22 09:58:51;;;;;;;28.27;26.97;;;19.60;53.90;;;;;;5032255;28;20515;-44
2022/02/22 10:01:17;;;;;;;27.50;26.30;;;19.60;53.70;;;;;;5032375;28;20457;-43
2022/02/22 10:03:48;;;;;;;27.43;26.13;;;19.60;53.70;;;;;;5032404;28;20453;-45
2022/02/22 10:06:22;;;;;;;27.90;26.40;;;19.60;53.60;;;;;;5032351;28;20866;-42
2022/02/22 10:08:56;;;;;;;28.17;26.77;;;19.50;53.50;;;;;;5031990;28;20926;-44
2022/02/22 10:11:23;;;;;;;26.90;25.53;;;19.50;53.50;;;;;;5032245;28;20491;-46
2022/02/22 10:13:49;;;;;;;27.20;25.80;;;19.60;53.50;;;;;;5032233;28;20556;-44
2022/02/22 10:16:17;;;;;;;29.60;28.20;;;19.50;53.40;;;;;;5032146;28;20456;-47
2022/02/22 10:18:48;;;;;;;30.90;29.50;;;19.50;53.40;;;;;;5031839;28;20452;-46
2022/02/22 10:21:15;;;;;;;30.60;29.10;;;19.50;53.40;;;;;;5031864;28;20457;-42
2022/02/22 10:23:42;;;;;;;30.40;29.00;;;19.60;53.40;;;;;;5032048;28;20450;-43
2022/02/22 10:26:19;;;;;;;30.37;28.97;;;19.60;53.30;;;;;;5031873;28;20935;-42
2022/02/22 10:28:46;;;;;;;29.77;28.37;;;19.60;53.20;;;;;;5031737;28;20448;-42
2022/02/22 10:31:13;;;;;;;24.80;23.60;;;19.70;53.10;;;;;;5031734;28;20525;-42
2022/02/22 10:33:43;;;;;;;30.20;28.70;;;19.70;53.00;;;;;;5031925;28;20936;-43
2022/02/22 10:36:18;;;;;;;30.10;28.70;;;19.70;52.90;;;;;;5031093;28;20511;-46
2022/02/22 10:38:45;;;;;;;28.40;27.10;;;19.70;52.90;;;;;;5030819;28;20453;-44
2022/02/22 10:41:15;;;;;;;27.93;26.53;;;19.70;52.80;;;;;;5031723;28;20468;-42
2022/02/22 10:43:50;;;;;;;31.00;29.47;;;19.70;52.90;;;;;;5031629;28;20511;-45
2022/02/22 10:46:23;;;;;;;27.90;26.60;;;19.60;53.00;;;;;;5031848;28;20455;-41
2022/02/22 10:48:50;;;;;;;28.87;27.43;;;19.70;54.10;;;;;;5031476;28;20445;-44
2022/02/22 10:51:18;;;;;;;27.40;26.10;;;19.70;55.60;;;;;;5031373;28;20878;-42
2022/02/22 10:53:46;;;;;;;27.07;25.77;;;19.80;56.60;;;;;;5031527;28;20448;-43
2022/02/22 10:56:16;;;;;;;24.10;22.90;;;19.80;57.10;;;;;;5030957;28;20975;-41
2022/02/22 10:58:44;;;;;;;30.63;29.17;;;19.80;57.60;;;;;;5031479;28;20211;-42
2022/02/22 11:01:13;;;;;;;30.53;29.10;;;19.90;57.30;;;;;;5031219;28;20457;-42
2022/02/22 11:03:40;;;;;;;31.00;29.30;;;19.90;57.40;;;;;;5031710;28;20457;-42
2022/02/22 11:06:07;;;;;;;28.80;27.50;;;19.90;57.30;;;;;;5034883;28;20445;-44
2022/02/22 11:08:36;;;;;;;29.47;28.07;;;19.90;57.60;;;;;;5035588;28;20817;-42
2022/02/22 11:11:05;;;;;;;29.03;27.73;;;19.90;58.00;;;;;;5035494;28;20556;-43
2022/02/22 11:13:34;;;;;;;27.57;26.33;;;19.90;58.40;;;;;;5036417;28;20449;-46
2022/02/22 11:16:17;;;;;;;26.83;25.53;;;19.90;59.00;;;;;;5036419;28;20819;-43
2022/02/22 11:18:49;;;;;;;29.07;27.50;;;19.90;59.00;;;;;;5035287;28;20522;-45
2022/02/22 11:21:17;;;;;;;29.60;28.10;;;19.80;59.20;;;;;;5035226;28;20467;-43
2022/02/22 11:23:45;;;;;;;29.10;27.80;;;19.80;59.50;;;;;;5035347;28;20451;-43
2022/02/22 11:26:15;;;;;;;29.23;27.87;;;19.80;59.70;;;;;;5035463;28;20457;-44
2022/02/22 11:28:45;;;;;;;31.33;29.93;;;19.70;59.80;;;;;;5035121;28;20455;-44
2022/02/22 11:31:14;;;;;;;30.40;28.90;;;19.60;60.90;;;;;;5034749;28;20469;-44
2022/02/22 11:33:43;;;;;;;30.53;29.07;;;19.60;61.70;;;;;;5035176;28;20449;-42
2022/02/22 11:36:11;;;;;;;29.73;28.33;;;19.40;61.60;;;;;;5034926;28;20449;-45
2022/02/22 11:38:45;;;;;;;26.20;25.00;;;19.30;62.50;;;;;;5034063;28;20433;-45
2022/02/22 11:41:17;;;;;;;30.07;28.67;;;19.30;62.80;;;;;;5034954;28;20222;-42
2022/02/22 11:43:58;;;;;;;29.63;28.23;;;19.30;62.60;;;;;;5035129;28;20457;-43
2022/02/22 11:46:42;;;;;;;27.80;26.40;;;19.30;62.00;;;;;;5034936;28;20448;-42
2022/02/22 11:49:11;;;;;;;29.50;27.90;;;19.30;61.50;;;;;;5034367;28;20449;-42
2022/02/22 11:51:44;;;;;;;27.70;26.30;;;19.30;61.10;;;;;;5034540;28;20500;-43
2022/02/22 11:54:13;;;;;;;25.53;24.30;;;19.20;60.10;;;;;;5034874;28;20822;-42
2022/02/22 11:56:42;;;;;;;26.60;25.27;;;19.10;60.10;;;;;;5034845;28;20488;-44
2022/02/22 11:59:21;;;;;;;26.20;24.90;;;19.00;60.20;;;;;;5034194;28;20806;-43
2022/02/22 12:01:51;;;;;;;27.23;25.93;;;19.10;60.80;;;;;;5034645;28;20870;-43
2022/02/22 12:04:22;;;;;;;26.93;25.73;;;19.10;60.30;;;;;;5034679;28;20446;-42
2022/02/22 12:06:53;;;;;;;25.73;24.53;;;19.20;60.20;;;;;;5034544;28;20452;-43
2022/02/22 12:09:21;;;;;;;25.97;24.77;;;19.20;59.80;;;;;;5034172;28;20503;-44
2022/02/22 12:11:48;;;;;;;25.70;24.40;;;19.30;59.70;;;;;;5034120;28;20481;-42
2022/02/22 12:14:15;;;;;;;26.83;25.53;;;19.40;59.10;;;;;;5034537;28;20540;-43
2022/02/22 12:16:45;;;;;;;24.83;23.63;;;19.40;59.00;;;;;;5033143;28;20953;-43
2022/02/22 12:19:15;;;;;;;25.73;24.53;;;19.50;58.90;;;;;;5034014;28;20445;-43
2022/02/22 12:21:45;;;;;;;24.67;23.57;;;19.60;58.50;;;;;;5034314;28;21044;-44
2022/02/22 12:24:15;;;;;;;26.60;25.10;;;19.60;58.10;;;;;;5034242;28;20935;-43
2022/02/22 12:26:42;;;;;;;27.60;26.20;;;19.60;57.80;;;;;;5034183;28;20536;-43
2022/02/22 12:29:10;;;;;;;25.27;24.07;;;19.70;57.70;;;;;;5033660;28;20814;-42
2022/02/22 12:31:39;;;;;;;25.77;24.47;;;19.70;57.30;;;;;;5033877;28;21010;-42